sensor_id;sensor_type;location;lat;lon;timestamp;temperature;humidity
44707;DHT22;30433;45.596;8.408;2023-04-24T00:00:40;12.10;99.90
44707;DHT22;30433;45.596;8.408;2023-04-24T00:06:44;12.20;99.90
44707;DHT22;30433;45.596;8.408;2023-04-24T00:12:49;12.20;99.90
44707;DHT22;30433;45.596;8.408;2023-04-24T00:18:51;12.00;99.90
44707;DHT22;30433;45.596;8.408;2023-04-24T00:24:57;12.10;99.90
44707;DHT22;30433;45.596;8.408;2023-04-24T00:30:59;12.20;99.90
44707;DHT22;30433;45.596;8.408;2023-04-24T00:37:01;12.10;99.90
44707;DHT22;30433;45.596;8.408;2023-04-24T00:43:05;12.10;99.90
44707;DHT22;30433;45.596;8.408;2023-04-24T00:49:06;12.00;99.90
44707;DHT22;30433;45.596;8.408;2023-04-24T00:55:08;11.90;99.90
44707;DHT22;30433;45.596;8.408;2023-04-24T01:01:12;11.70;99.90
44707;DHT22;30433;45.596;8.408;2023-04-24T01:07:14;11.80;99.90
44707;DHT22;30433;45.596;8.408;2023-04-24T01:13:16;11.80;99.90
44707;DHT22;30433;45.596;8.408;2023-04-24T01:19:19;11.50;99.90
44707;DHT22;30433;45.596;8.408;2023-04-24T01:25:23;11.70;99.90
44707;DHT22;30433;45.596;8.408;2023-04-24T01:31:26;11.50;99.90
44707;DHT22;30433;45.596;8.408;2023-04-24T01:37:28;11.40;99.90
44707;DHT22;30433;45.596;8.408;2023-04-24T01:43:31;11.20;99.90
44707;DHT22;30433;45.596;8.408;2023-04-24T01:49:33;11.10;99.90
44707;DHT22;30433;45.596;8.408;2023-04-24T01:55:35;11.20;99.90
44707;DHT22;30433;45.596;8.408;2023-04-24T02:01:38;11.30;99.90
44707;DHT22;30433;45.596;8.408;2023-04-24T02:07:40;11.20;99.90
44707;DHT22;30433;45.596;8.408;2023-04-24T02:13:42;11.00;99.90
44707;DHT22;30433;45.596;8.408;2023-04-24T02:19:45;10.90;99.90
44707;DHT22;30433;45.596;8.408;2023-04-24T02:25:47;10.70;99.90
44707;DHT22;30433;45.596;8.408;2023-04-24T02:31:49;10.80;99.90
44707;DHT22;30433;45.596;8.408;2023-04-24T02:37:52;10.80;99.90
44707;DHT22;30433;45.596;8.408;2023-04-24T02:43:54;10.80;99.90
44707;DHT22;30433;45.596;8.408;2023-04-24T02:49:56;10.70;99.90
44707;DHT22;30433;45.596;8.408;2023-04-24T02:55:59;10.80;99.90
44707;DHT22;30433;45.596;8.408;2023-04-24T03:02:01;10.80;99.90
44707;DHT22;30433;45.596;8.408;2023-04-24T03:08:03;10.70;99.90
44707;DHT22;30433;45.596;8.408;2023-04-24T03:14:07;10.50;99.90
44707;DHT22;30433;45.596;8.408;2023-04-24T03:20:09;10.10;99.90
44707;DHT22;30433;45.596;8.408;2023-04-24T03:26:11;10.50;99.90
44707;DHT22;30433;45.596;8.408;2023-04-24T03:32:14;10.40;99.90
44707;DHT22;30433;45.596;8.408;2023-04-24T03:38:16;9.90;99.90
44707;DHT22;30433;45.596;8.408;2023-04-24T03:44:18;9.60;99.90
44707;DHT22;30433;45.596;8.408;2023-04-24T03:50:21;9.90;99.90
44707;DHT22;30433;45.596;8.408;2023-04-24T03:56:23;10.00;99.90
44707;DHT22;30433;45.596;8.408;2023-04-24T04:02:25;9.20;99.90
44707;DHT22;30433;45.596;8.408;2023-04-24T04:08:28;10.00;99.90
44707;DHT22;30433;45.596;8.408;2023-04-24T04:14:30;9.60;99.90
44707;DHT22;30433;45.596;8.408;2023-04-24T04:20:32;9.00;99.90
44707;DHT22;30433;45.596;8.408;2023-04-24T04:26:35;9.50;99.90
44707;DHT22;30433;45.596;8.408;2023-04-24T04:32:38;9.20;99.90
44707;DHT22;30433;45.596;8.408;2023-04-24T04:38:40;9.00;99.90
44707;DHT22;30433;45.596;8.408;2023-04-24T04:44:44;9.70;99.90
44707;DHT22;30433;45.596;8.408;2023-04-24T04:50:46;9.30;99.90
44707;DHT22;30433;45.596;8.408;2023-04-24T04:56:49;9.00;99.90
44707;DHT22;30433;45.596;8.408;2023-04-24T05:02:52;9.60;99.90
44707;DHT22;30433;45.596;8.408;2023-04-24T05:08:54;9.50;99.90
44707;DHT22;30433;45.596;8.408;2023-04-24T05:14:57;9.60;99.90
44707;DHT22;30433;45.596;8.408;2023-04-24T05:21:00;10.50;99.90
44707;DHT22;30433;45.596;8.408;2023-04-24T05:27:03;11.60;99.90
44707;DHT22;30433;45.596;8.408;2023-04-24T05:33:05;12.00;99.90
44707;DHT22;30433;45.596;8.408;2023-04-24T05:39:08;11.80;99.90
44707;DHT22;30433;45.596;8.408;2023-04-24T05:45:10;12.70;99.90
44707;DHT22;30433;45.596;8.408;2023-04-24T05:51:16;12.20;99.90
44707;DHT22;30433;45.596;8.408;2023-04-24T05:57:20;12.80;99.90
44707;DHT22;30433;45.596;8.408;2023-04-24T06:03:22;12.10;99.90
44707;DHT22;30433;45.596;8.408;2023-04-24T06:09:24;12.80;99.90
44707;DHT22;30433;45.596;8.408;2023-04-24T06:15:28;12.80;99.90
44707;DHT22;30433;45.596;8.408;2023-04-24T06:21:30;13.10;99.90
44707;DHT22;30433;45.596;8.408;2023-04-24T06:27:32;13.10;99.90
44707;DHT22;30433;45.596;8.408;2023-04-24T06:33:39;13.40;99.90
44707;DHT22;30433;45.596;8.408;2023-04-24T06:39:41;13.70;99.90
44707;DHT22;30433;45.596;8.408;2023-04-24T06:45:42;13.80;99.90
44707;DHT22;30433;45.596;8.408;2023-04-24T06:51:47;14.00;99.90
44707;DHT22;30433;45.596;8.408;2023-04-24T06:57:49;14.30;99.90
44707;DHT22;30433;45.596;8.408;2023-04-24T07:03:50;14.50;99.90
44707;DHT22;30433;45.596;8.408;2023-04-24T07:09:54;14.10;99.90
44707;DHT22;30433;45.596;8.408;2023-04-24T07:15:56;14.90;99.90
44707;DHT22;30433;45.596;8.408;2023-04-24T07:21:58;14.70;99.90
44707;DHT22;30433;45.596;8.408;2023-04-24T07:28:02;15.60;99.90
44707;DHT22;30433;45.596;8.408;2023-04-24T07:34:04;14.90;99.90
44707;DHT22;30433;45.596;8.408;2023-04-24T07:40:07;15.00;99.90
44707;DHT22;30433;45.596;8.408;2023-04-24T07:46:10;15.20;99.90
44707;DHT22;30433;45.596;8.408;2023-04-24T07:52:12;15.70;99.90
44707;DHT22;30433;45.596;8.408;2023-04-24T07:58:14;15.10;99.90
44707;DHT22;30433;45.596;8.408;2023-04-24T08:04:18;15.60;99.90
44707;DHT22;30433;45.596;8.408;2023-04-24T08:10:20;15.60;99.90
44707;DHT22;30433;45.596;8.408;2023-04-24T08:16:22;16.20;99.90
44707;DHT22;30433;45.596;8.408;2023-04-24T08:22:25;16.30;99.90
44707;DHT22;30433;45.596;8.408;2023-04-24T08:28:27;15.90;99.90
44707;DHT22;30433;45.596;8.408;2023-04-24T08:34:29;16.40;99.90
44707;DHT22;30433;45.596;8.408;2023-04-24T08:40:34;16.10;99.90
44707;DHT22;30433;45.596;8.408;2023-04-24T08:46:36;16.50;99.90
44707;DHT22;30433;45.596;8.408;2023-04-24T08:52:38;16.20;99.90
44707;DHT22;30433;45.596;8.408;2023-04-24T08:58:41;16.90;99.90
44707;DHT22;30433;45.596;8.408;2023-04-24T09:04:44;16.50;99.90
44707;DHT22;30433;45.596;8.408;2023-04-24T09:10:46;16.70;99.90
44707;DHT22;30433;45.596;8.408;2023-04-24T09:16:49;16.90;99.30
44707;DHT22;30433;45.596;8.408;2023-04-24T09:22:53;17.20;98.80
44707;DHT22;30433;45.596;8.408;2023-04-24T09:28:55;17.00;98.40
44707;DHT22;30433;45.596;8.408;2023-04-24T09:35:11;17.30;98.40
44707;DHT22;30433;45.596;8.408;2023-04-24T09:41:13;17.40;98.00
44707;DHT22;30433;45.596;8.408;2023-04-24T09:47:15;17.40;97.20
44707;DHT22;30433;45.596;8.408;2023-04-24T09:53:19;17.40;96.60
44707;DHT22;30433;45.596;8.408;2023-04-24T09:59:25;17.80;98.60
44707;DHT22;30433;45.596;8.408;2023-04-24T10:05:27;17.70;98.70
44707;DHT22;30433;45.596;8.408;2023-04-24T10:11:31;17.80;98.00
44707;DHT22;30433;45.596;8.408;2023-04-24T10:17:33;18.30;97.70
44707;DHT22;30433;45.596;8.408;2023-04-24T10:23:35;17.90;98.00
44707;DHT22;30433;45.596;8.408;2023-04-24T10:29:39;17.90;99.80
44707;DHT22;30433;45.596;8.408;2023-04-24T10:35:45;18.20;98.20
44707;DHT22;30433;45.596;8.408;2023-04-24T10:41:49;18.10;99.50
44707;DHT22;30433;45.596;8.408;2023-04-24T10:47:53;18.00;99.40
44707;DHT22;30433;45.596;8.408;2023-04-24T10:53:55;18.20;97.30
44707;DHT22;30433;45.596;8.408;2023-04-24T11:00:18;18.40;98.00
44707;DHT22;30433;45.596;8.408;2023-04-24T11:06:22;18.30;97.30
44707;DHT22;30433;45.596;8.408;2023-04-24T11:12:31;18.50;97.60
44707;DHT22;30433;45.596;8.408;2023-04-24T11:18:39;19.20;98.00
44707;DHT22;30433;45.596;8.408;2023-04-24T11:24:50;18.50;95.60
44707;DHT22;30433;45.596;8.408;2023-04-24T11:30:52;18.70;95.80
44707;DHT22;30433;45.596;8.408;2023-04-24T11:36:54;19.30;97.30
44707;DHT22;30433;45.596;8.408;2023-04-24T11:42:59;19.60;95.30
44707;DHT22;30433;45.596;8.408;2023-04-24T11:49:01;19.50;95.50
44707;DHT22;30433;45.596;8.408;2023-04-24T11:55:03;19.80;95.00
44707;DHT22;30433;45.596;8.408;2023-04-24T12:01:06;19.90;97.80
44707;DHT22;30433;45.596;8.408;2023-04-24T12:07:08;20.00;95.20
44707;DHT22;30433;45.596;8.408;2023-04-24T12:13:10;19.20;93.50
44707;DHT22;30433;45.596;8.408;2023-04-24T12:19:18;19.30;93.20
44707;DHT22;30433;45.596;8.408;2023-04-24T12:25:22;20.40;94.70
44707;DHT22;30433;45.596;8.408;2023-04-24T12:31:24;20.00;92.40
44707;DHT22;30433;45.596;8.408;2023-04-24T12:37:32;19.30;92.10
44707;DHT22;30433;45.596;8.408;2023-04-24T12:43:34;19.50;91.70
44707;DHT22;30433;45.596;8.408;2023-04-24T12:49:36;19.80;92.10
44707;DHT22;30433;45.596;8.408;2023-04-24T12:55:39;20.90;92.70
44707;DHT22;30433;45.596;8.408;2023-04-24T13:01:41;20.40;93.20
44707;DHT22;30433;45.596;8.408;2023-04-24T13:07:43;20.00;93.50
44707;DHT22;30433;45.596;8.408;2023-04-24T13:13:46;20.80;91.20
44707;DHT22;30433;45.596;8.408;2023-04-24T13:19:49;20.90;91.50
44707;DHT22;30433;45.596;8.408;2023-04-24T13:25:51;20.80;88.20
44707;DHT22;30433;45.596;8.408;2023-04-24T13:31:57;20.90;88.70
44707;DHT22;30433;45.596;8.408;2023-04-24T13:37:59;20.80;90.60
44707;DHT22;30433;45.596;8.408;2023-04-24T13:44:01;20.60;88.80
44707;DHT22;30433;45.596;8.408;2023-04-24T13:50:05;20.70;84.30
44707;DHT22;30433;45.596;8.408;2023-04-24T13:56:07;20.60;87.20
44707;DHT22;30433;45.596;8.408;2023-04-24T14:02:09;20.30;82.60
44707;DHT22;30433;45.596;8.408;2023-04-24T14:08:13;20.70;87.40
44707;DHT22;30433;45.596;8.408;2023-04-24T14:14:15;20.50;85.90
44707;DHT22;30433;45.596;8.408;2023-04-24T14:20:17;20.60;84.70
44707;DHT22;30433;45.596;8.408;2023-04-24T14:26:20;20.20;83.40
44707;DHT22;30433;45.596;8.408;2023-04-24T14:32:22;20.40;89.00
44707;DHT22;30433;45.596;8.408;2023-04-24T14:38:24;20.50;90.60
44707;DHT22;30433;45.596;8.408;2023-04-24T14:44:28;20.30;91.60
44707;DHT22;30433;45.596;8.408;2023-04-24T14:50:30;20.10;89.10
44707;DHT22;30433;45.596;8.408;2023-04-24T14:56:32;20.10;88.10
44707;DHT22;30433;45.596;8.408;2023-04-24T15:02:35;20.30;90.50
44707;DHT22;30433;45.596;8.408;2023-04-24T15:08:40;20.10;87.30
44707;DHT22;30433;45.596;8.408;2023-04-24T15:14:42;20.30;85.90
44707;DHT22;30433;45.596;8.408;2023-04-24T15:20:45;20.30;89.30
44707;DHT22;30433;45.596;8.408;2023-04-24T15:26:47;20.10;84.50
44707;DHT22;30433;45.596;8.408;2023-04-24T15:32:52;20.40;84.60
44707;DHT22;30433;45.596;8.408;2023-04-24T15:38:55;20.20;85.30
44707;DHT22;30433;45.596;8.408;2023-04-24T15:44:57;20.20;86.60
44707;DHT22;30433;45.596;8.408;2023-04-24T15:50:59;19.90;84.20
44707;DHT22;30433;45.596;8.408;2023-04-24T15:57:02;20.10;83.40
44707;DHT22;30433;45.596;8.408;2023-04-24T16:03:04;20.10;83.40
44707;DHT22;30433;45.596;8.408;2023-04-24T16:09:07;20.00;82.50
44707;DHT22;30433;45.596;8.408;2023-04-24T16:15:11;20.10;82.30
44707;DHT22;30433;45.596;8.408;2023-04-24T16:21:13;20.10;84.20
44707;DHT22;30433;45.596;8.408;2023-04-24T16:27:15;20.10;83.60
44707;DHT22;30433;45.596;8.408;2023-04-24T16:33:18;20.00;85.70
44707;DHT22;30433;45.596;8.408;2023-04-24T16:39:20;20.20;83.10
44707;DHT22;30433;45.596;8.408;2023-04-24T16:45:22;20.10;83.70
44707;DHT22;30433;45.596;8.408;2023-04-24T16:51:26;19.90;86.30
44707;DHT22;30433;45.596;8.408;2023-04-24T16:57:28;20.00;82.00
44707;DHT22;30433;45.596;8.408;2023-04-24T17:03:30;20.00;82.90
44707;DHT22;30433;45.596;8.408;2023-04-24T17:09:33;20.00;80.90
44707;DHT22;30433;45.596;8.408;2023-04-24T17:15:35;19.90;82.40
44707;DHT22;30433;45.596;8.408;2023-04-24T17:21:37;20.00;81.90
44707;DHT22;30433;45.596;8.408;2023-04-24T17:27:41;19.90;83.10
44707;DHT22;30433;45.596;8.408;2023-04-24T17:33:42;19.70;84.40
44707;DHT22;30433;45.596;8.408;2023-04-24T17:39:44;19.50;81.90
44707;DHT22;30433;45.596;8.408;2023-04-24T17:45:48;19.30;84.00
44707;DHT22;30433;45.596;8.408;2023-04-24T17:51:50;19.20;85.40
44707;DHT22;30433;45.596;8.408;2023-04-24T17:57:52;19.40;86.40
44707;DHT22;30433;45.596;8.408;2023-04-24T18:03:55;19.30;88.30
44707;DHT22;30433;45.596;8.408;2023-04-24T18:09:57;19.00;89.50
44707;DHT22;30433;45.596;8.408;2023-04-24T18:15:59;18.70;90.40
44707;DHT22;30433;45.596;8.408;2023-04-24T18:22:02;18.50;91.50
44707;DHT22;30433;45.596;8.408;2023-04-24T18:28:04;18.30;91.90
44707;DHT22;30433;45.596;8.408;2023-04-24T18:34:06;18.10;92.00
44707;DHT22;30433;45.596;8.408;2023-04-24T18:40:10;17.10;94.90
44707;DHT22;30433;45.596;8.408;2023-04-24T18:46:12;17.00;94.90
44707;DHT22;30433;45.596;8.408;2023-04-24T18:52:14;17.30;93.40
44707;DHT22;30433;45.596;8.408;2023-04-24T18:58:17;17.10;93.60
44707;DHT22;30433;45.596;8.408;2023-04-24T19:04:19;16.80;96.50
44707;DHT22;30433;45.596;8.408;2023-04-24T19:10:21;16.50;95.80
44707;DHT22;30433;45.596;8.408;2023-04-24T19:16:25;16.50;95.40
44707;DHT22;30433;45.596;8.408;2023-04-24T19:22:26;16.50;96.00
44707;DHT22;30433;45.596;8.408;2023-04-24T19:28:29;16.30;95.50
44707;DHT22;30433;45.596;8.408;2023-04-24T19:34:33;15.70;94.00
44707;DHT22;30433;45.596;8.408;2023-04-24T19:40:35;15.80;91.90
44707;DHT22;30433;45.596;8.408;2023-04-24T19:46:37;15.90;90.80
44707;DHT22;30433;45.596;8.408;2023-04-24T19:52:40;15.90;90.20
44707;DHT22;30433;45.596;8.408;2023-04-24T19:58:42;15.90;89.50
44707;DHT22;30433;45.596;8.408;2023-04-24T20:04:44;16.00;88.50
44707;DHT22;30433;45.596;8.408;2023-04-24T20:10:48;16.00;85.40
44707;DHT22;30433;45.596;8.408;2023-04-24T20:16:50;15.80;81.40
44707;DHT22;30433;45.596;8.408;2023-04-24T20:22:53;15.70;79.30
44707;DHT22;30433;45.596;8.408;2023-04-24T20:28:57;15.60;77.30
44707;DHT22;30433;45.596;8.408;2023-04-24T20:34:59;15.80;73.60
44707;DHT22;30433;45.596;8.408;2023-04-24T20:41:01;15.80;73.00
44707;DHT22;30433;45.596;8.408;2023-04-24T20:47:04;15.60;72.40
44707;DHT22;30433;45.596;8.408;2023-04-24T20:53:06;15.60;73.90
44707;DHT22;30433;45.596;8.408;2023-04-24T20:59:08;15.30;78.20
44707;DHT22;30433;45.596;8.408;2023-04-24T21:05:12;15.00;78.70
44707;DHT22;30433;45.596;8.408;2023-04-24T21:11:14;14.70;79.70
44707;DHT22;30433;45.596;8.408;2023-04-24T21:17:16;14.40;82.60
44707;DHT22;30433;45.596;8.408;2023-04-24T21:23:19;14.20;83.60
44707;DHT22;30433;45.596;8.408;2023-04-24T21:29:21;14.20;85.40
44707;DHT22;30433;45.596;8.408;2023-04-24T21:35:23;14.20;87.60
44707;DHT22;30433;45.596;8.408;2023-04-24T21:41:26;14.00;91.00
44707;DHT22;30433;45.596;8.408;2023-04-24T21:47:28;14.00;90.80
44707;DHT22;30433;45.596;8.408;2023-04-24T21:53:30;13.50;91.00
44707;DHT22;30433;45.596;8.408;2023-04-24T21:59:33;13.40;90.40
44707;DHT22;30433;45.596;8.408;2023-04-24T22:05:35;13.20;90.30
44707;DHT22;30433;45.596;8.408;2023-04-24T22:11:37;13.10;91.60
44707;DHT22;30433;45.596;8.408;2023-04-24T22:17:42;13.00;92.30
44707;DHT22;30433;45.596;8.408;2023-04-24T22:23:44;13.00;92.30
44707;DHT22;30433;45.596;8.408;2023-04-24T22:29:46;13.20;92.20
44707;DHT22;30433;45.596;8.408;2023-04-24T22:35:49;13.00;92.20
44707;DHT22;30433;45.596;8.408;2023-04-24T22:41:51;12.80;92.80
44707;DHT22;30433;45.596;8.408;2023-04-24T22:47:53;12.20;92.70
44707;DHT22;30433;45.596;8.408;2023-04-24T22:53:56;12.20;93.50
44707;DHT22;30433;45.596;8.408;2023-04-24T22:59:58;12.50;93.20
44707;DHT22;30433;45.596;8.408;2023-04-24T23:06:00;12.60;93.90
44707;DHT22;30433;45.596;8.408;2023-04-24T23:12:03;11.90;95.60
44707;DHT22;30433;45.596;8.408;2023-04-24T23:18:05;11.70;94.90
44707;DHT22;30433;45.596;8.408;2023-04-24T23:24:07;11.20;94.70
44707;DHT22;30433;45.596;8.408;2023-04-24T23:30:11;11.20;93.70
44707;DHT22;30433;45.596;8.408;2023-04-24T23:36:13;10.90;95.50
44707;DHT22;30433;45.596;8.408;2023-04-24T23:42:16;11.40;94.40
44707;DHT22;30433;45.596;8.408;2023-04-24T23:48:19;11.40;95.50
44707;DHT22;30433;45.596;8.408;2023-04-24T23:54:21;11.30;93.50
